createdAt,value
2022-11-20T00:00:29.534Z,0.00
2022-11-20T00:01:29.507Z,0.00
2022-11-20T00:02:29.500Z,0.00
2022-11-20T00:03:29.495Z,0.00
2022-11-20T00:04:29.490Z,0.00
2022-11-20T00:05:29.445Z,0.00
2022-11-20T00:06:29.461Z,0.00
2022-11-20T00:07:29.519Z,0.00
2022-11-20T00:08:29.446Z,0.00
2022-11-20T00:09:29.447Z,0.00
2022-11-20T00:10:29.425Z,0.00
2022-11-20T00:11:29.403Z,0.00
2022-11-20T00:12:29.397Z,0.00
2022-11-20T00:13:29.427Z,0.00
2022-11-20T00:14:29.370Z,0.00
2022-11-20T00:15:29.360Z,0.00
2022-11-20T00:16:29.423Z,0.00
2022-11-20T00:17:29.335Z,0.00
2022-11-20T00:18:29.343Z,0.00
2022-11-20T00:19:29.450Z,0.00
2022-11-20T00:20:29.318Z,0.00
2022-11-20T00:21:29.306Z,0.00
2022-11-20T00:22:29.295Z,0.00
2022-11-20T00:23:29.280Z,0.00
2022-11-20T00:24:29.308Z,0.00
2022-11-20T00:25:29.265Z,0.00
2022-11-20T00:26:29.267Z,0.00
2022-11-20T00:27:29.242Z,0.00
2022-11-20T00:28:29.247Z,0.00
2022-11-20T00:29:29.223Z,0.00
2022-11-20T00:30:29.234Z,0.00
2022-11-20T00:31:29.208Z,0.00
2022-11-20T00:32:29.205Z,0.00
2022-11-20T00:33:29.175Z,0.00
2022-11-20T00:34:29.185Z,0.00
2022-11-20T00:35:29.187Z,0.00
2022-11-20T00:36:29.220Z,0.00
2022-11-20T00:37:29.140Z,0.00
2022-11-20T00:38:29.133Z,0.00
2022-11-20T00:39:29.124Z,0.00
2022-11-20T00:40:29.152Z,0.00
2022-11-20T00:41:29.104Z,0.00
2022-11-20T00:42:29.121Z,0.00
2022-11-20T00:43:29.096Z,0.00
2022-11-20T00:44:29.088Z,0.00
2022-11-20T00:45:29.052Z,0.00
2022-11-20T00:46:29.083Z,0.00
2022-11-20T00:47:29.053Z,0.00
2022-11-20T00:48:29.045Z,0.00
2022-11-20T00:49:29.022Z,0.00
2022-11-20T00:50:29.017Z,0.00
2022-11-20T00:51:29.045Z,0.00
2022-11-20T00:52:29.000Z,0.00
2022-11-20T00:53:28.981Z,0.00
2022-11-20T00:54:28.979Z,0.00
2022-11-20T00:55:28.969Z,0.00
2022-11-20T00:56:28.977Z,0.00
2022-11-20T00:57:28.939Z,0.00
2022-11-20T00:58:28.938Z,0.00
2022-11-20T00:59:28.916Z,0.00
2022-11-20T01:00:28.924Z,0.00
2022-11-20T01:01:28.958Z,0.00
2022-11-20T01:02:28.901Z,0.00
2022-11-20T01:03:28.885Z,0.00
2022-11-20T01:04:28.905Z,0.00
2022-11-20T01:05:28.864Z,0.00
2022-11-20T01:06:28.883Z,0.00
2022-11-20T01:07:28.939Z,0.00
2022-11-20T01:08:28.840Z,0.00
2022-11-20T01:09:28.821Z,0.00
2022-11-20T01:10:28.812Z,0.00
2022-11-20T01:11:28.820Z,0.00
2022-11-20T01:12:28.821Z,0.00
2022-11-20T01:13:28.797Z,0.00
2022-11-20T01:14:28.785Z,0.00
2022-11-20T01:15:28.776Z,0.00
2022-11-20T01:16:28.791Z,0.00
2022-11-20T01:17:28.756Z,0.00
2022-11-20T01:18:28.738Z,0.00
2022-11-20T01:19:28.723Z,0.00
2022-11-20T01:20:28.702Z,0.00
2022-11-20T01:21:28.708Z,0.00
2022-11-20T01:22:28.708Z,0.00
2022-11-20T01:23:28.694Z,0.00
2022-11-20T01:24:28.773Z,0.00
2022-11-20T01:25:28.708Z,0.00
2022-11-20T01:26:28.666Z,0.00
2022-11-20T01:27:28.661Z,0.00
2022-11-20T01:28:28.636Z,0.00
2022-11-20T01:29:28.638Z,0.00
2022-11-20T01:30:28.622Z,0.00
2022-11-20T01:31:28.611Z,0.00
2022-11-20T01:32:28.611Z,0.00
2022-11-20T01:33:28.610Z,0.00
2022-11-20T01:34:28.579Z,0.00
2022-11-20T01:35:28.563Z,0.00
2022-11-20T01:36:28.545Z,0.00
2022-11-20T01:37:28.572Z,0.00
2022-11-20T01:38:28.585Z,0.00
2022-11-20T01:39:28.538Z,0.00
2022-11-20T01:40:28.519Z,0.00
2022-11-20T01:41:28.530Z,0.00
2022-11-20T01:42:28.504Z,0.00
2022-11-20T01:43:28.482Z,0.00
2022-11-20T01:44:28.474Z,0.00
2022-11-20T01:45:28.475Z,0.00
2022-11-20T01:46:28.450Z,0.00
2022-11-20T01:47:28.451Z,0.00
2022-11-20T01:48:28.456Z,0.00
2022-11-20T01:49:28.434Z,0.00
2022-11-20T01:50:28.418Z,0.00
2022-11-20T01:51:28.406Z,0.00
2022-11-20T01:52:28.390Z,0.00
2022-11-20T01:53:28.664Z,0.00
2022-11-20T01:54:28.382Z,0.00
2022-11-20T01:55:28.369Z,0.00
2022-11-20T01:56:28.361Z,0.00
2022-11-20T01:57:28.354Z,0.00
2022-11-20T01:58:28.348Z,0.00
2022-11-20T01:59:28.359Z,0.00
2022-11-20T02:00:28.323Z,0.00
2022-11-20T02:01:28.394Z,0.00
2022-11-20T02:02:28.298Z,0.00
2022-11-20T02:03:28.308Z,0.00
2022-11-20T02:04:28.278Z,0.00
2022-11-20T02:05:28.289Z,0.00
2022-11-20T02:06:34.784Z,0.00
2022-11-20T02:07:28.343Z,0.00
2022-11-20T02:08:28.241Z,0.00
2022-11-20T02:09:28.236Z,0.00
2022-11-20T02:10:28.232Z,0.00
2022-11-20T02:11:28.225Z,0.00
2022-11-20T02:12:28.209Z,0.00
2022-11-20T02:13:28.197Z,0.00
2022-11-20T02:14:28.173Z,0.00
2022-11-20T02:15:30.396Z,0.00
2022-11-20T02:16:28.172Z,0.00
2022-11-20T02:17:28.160Z,0.00
2022-11-20T02:18:28.133Z,0.00
2022-11-20T02:19:28.142Z,0.00
2022-11-20T02:20:28.228Z,0.00
2022-11-20T02:21:28.117Z,0.00
2022-11-20T02:22:28.102Z,0.00
2022-11-20T02:23:28.102Z,0.00
2022-11-20T02:24:28.086Z,0.00
2022-11-20T02:25:28.073Z,0.00
2022-11-20T02:26:28.077Z,0.00
2022-11-20T02:27:28.086Z,0.00
2022-11-20T02:28:28.036Z,0.00
2022-11-20T02:29:28.042Z,0.00
2022-11-20T02:30:28.039Z,0.00
2022-11-20T02:31:28.016Z,0.00
2022-11-20T02:32:28.022Z,0.00
2022-11-20T02:33:28.002Z,0.00
2022-11-20T02:34:28.010Z,0.00
2022-11-20T02:35:27.991Z,0.00
2022-11-20T02:36:27.965Z,0.00
2022-11-20T02:37:27.996Z,0.00
2022-11-20T02:38:27.940Z,0.00
2022-11-20T02:39:27.937Z,0.00
2022-11-20T02:40:27.969Z,0.00
2022-11-20T02:41:27.917Z,0.00
2022-11-20T02:42:27.905Z,0.00
2022-11-20T02:43:27.914Z,0.00
2022-11-20T02:44:27.877Z,0.00
2022-11-20T02:45:27.877Z,0.00
2022-11-20T02:46:27.859Z,0.00
2022-11-20T02:47:27.857Z,0.00
2022-11-20T02:48:30.217Z,0.00
2022-11-20T02:49:27.866Z,0.00
2022-11-20T02:50:27.813Z,0.00
2022-11-20T02:51:27.836Z,0.00
2022-11-20T02:52:27.803Z,0.00
2022-11-20T02:53:27.815Z,0.00
2022-11-20T02:54:27.835Z,0.00
2022-11-20T02:55:27.791Z,0.00
2022-11-20T02:56:27.786Z,0.00
2022-11-20T02:57:27.762Z,0.00
2022-11-20T02:58:27.790Z,0.00
2022-11-20T02:59:27.743Z,0.00
2022-11-20T03:00:27.726Z,0.00
2022-11-20T03:01:27.843Z,0.00
2022-11-20T03:02:27.708Z,0.00
2022-11-20T03:03:27.699Z,0.00
2022-11-20T03:04:27.703Z,0.00
2022-11-20T03:05:27.678Z,0.00
2022-11-20T03:06:27.657Z,0.00
2022-11-20T03:07:27.706Z,0.00
2022-11-20T03:08:27.641Z,0.00
2022-11-20T03:09:27.661Z,0.00
2022-11-20T03:10:27.633Z,0.00
2022-11-20T03:11:27.618Z,0.00
2022-11-20T03:12:27.669Z,0.00
2022-11-20T03:13:27.594Z,0.00
2022-11-20T03:14:27.607Z,0.00
2022-11-20T03:15:27.589Z,0.00
2022-11-20T03:16:27.560Z,0.00
2022-11-20T03:17:27.581Z,0.00
2022-11-20T03:18:27.568Z,0.00
2022-11-20T03:19:27.541Z,0.00
2022-11-20T03:20:27.562Z,0.00
2022-11-20T03:21:27.561Z,0.00
2022-11-20T03:22:27.625Z,0.00
2022-11-20T03:23:27.501Z,0.00
2022-11-20T03:24:27.504Z,0.00
2022-11-20T03:25:27.505Z,0.00
2022-11-20T03:26:27.462Z,0.00
2022-11-20T03:27:27.492Z,0.00
2022-11-20T03:28:27.457Z,0.00
2022-11-20T03:29:27.443Z,0.00
2022-11-20T03:30:30.496Z,0.00
2022-11-20T03:31:27.427Z,0.00
2022-11-20T03:32:27.428Z,0.00
2022-11-20T03:33:27.419Z,0.00
2022-11-20T03:34:27.384Z,0.00
2022-11-20T03:35:27.397Z,0.00
2022-11-20T03:36:27.361Z,0.00
2022-11-20T03:37:27.376Z,0.00
2022-11-20T03:38:27.345Z,0.00
2022-11-20T03:39:27.359Z,0.00
2022-11-20T03:40:27.477Z,0.00
2022-11-20T03:41:27.324Z,0.00
2022-11-20T03:42:27.331Z,0.00
2022-11-20T03:43:27.370Z,0.00
2022-11-20T03:44:27.284Z,0.00
2022-11-20T03:45:27.282Z,0.00
2022-11-20T03:46:27.276Z,0.00
2022-11-20T03:47:27.268Z,0.00
2022-11-20T03:48:27.263Z,0.00
2022-11-20T03:49:27.243Z,0.00
2022-11-20T03:50:27.221Z,0.00
2022-11-20T03:51:27.241Z,0.00
2022-11-20T03:52:27.222Z,0.00
2022-11-20T03:53:27.214Z,0.00
2022-11-20T03:54:27.218Z,0.00
2022-11-20T03:55:27.196Z,0.00
2022-11-20T03:56:27.182Z,0.00
2022-11-20T03:57:27.160Z,0.00
2022-11-20T03:58:27.163Z,0.00
2022-11-20T03:59:27.157Z,0.00
2022-11-20T04:00:27.128Z,0.00
2022-11-20T04:01:27.200Z,0.00
2022-11-20T04:02:27.112Z,0.00
2022-11-20T04:03:27.116Z,0.00
2022-11-20T04:04:27.125Z,0.00
2022-11-20T04:05:27.089Z,0.00
2022-11-20T04:06:27.069Z,0.00
2022-11-20T04:07:27.231Z,0.00
2022-11-20T04:08:27.054Z,0.00
2022-11-20T04:09:27.054Z,0.00
2022-11-20T04:10:27.045Z,0.00
2022-11-20T04:11:27.037Z,0.00
2022-11-20T04:12:27.016Z,0.00
2022-11-20T04:13:27.013Z,0.00
2022-11-20T04:14:26.997Z,0.00
2022-11-20T04:15:26.990Z,0.00
2022-11-20T04:16:26.969Z,0.00
2022-11-20T04:17:26.968Z,0.00
2022-11-20T04:18:26.963Z,0.00
2022-11-20T04:19:26.970Z,0.00
2022-11-20T04:20:26.951Z,0.00
2022-11-20T04:21:26.931Z,0.00
2022-11-20T04:22:26.914Z,0.00
2022-11-20T04:23:28.832Z,0.00
2022-11-20T04:24:26.906Z,0.00
2022-11-20T04:25:26.903Z,0.00
2022-11-20T04:26:26.863Z,0.00
2022-11-20T04:27:26.880Z,0.00
2022-11-20T04:28:26.862Z,0.00
2022-11-20T04:29:26.863Z,0.00
2022-11-20T04:30:26.852Z,0.00
2022-11-20T04:31:26.830Z,0.00
2022-11-20T04:32:26.814Z,0.00
2022-11-20T04:33:28.954Z,0.00
2022-11-20T04:34:26.810Z,0.00
2022-11-20T04:35:26.896Z,0.00
2022-11-20T04:36:26.773Z,0.00
2022-11-20T04:37:26.773Z,0.00
2022-11-20T04:38:26.761Z,0.00
2022-11-20T04:39:26.749Z,0.00
2022-11-20T04:40:26.731Z,0.00
2022-11-20T04:41:26.777Z,0.00
2022-11-20T04:42:26.751Z,0.00
2022-11-20T04:43:26.740Z,0.00
2022-11-20T04:44:26.706Z,0.00
2022-11-20T04:45:26.692Z,0.00
2022-11-20T04:46:26.688Z,0.00
2022-11-20T04:47:26.693Z,0.00
2022-11-20T04:48:26.660Z,0.00
2022-11-20T04:49:26.709Z,0.00
2022-11-20T04:50:26.634Z,0.00
2022-11-20T04:51:26.635Z,0.00
2022-11-20T04:52:26.613Z,0.00
2022-11-20T04:53:26.640Z,0.00
2022-11-20T04:54:26.600Z,0.00
2022-11-20T04:55:26.595Z,0.00
2022-11-20T04:56:26.603Z,0.00
2022-11-20T04:57:26.586Z,0.00
2022-11-20T04:58:26.551Z,0.00
2022-11-20T04:59:26.572Z,0.00
2022-11-20T05:00:26.537Z,0.00
2022-11-20T05:01:26.608Z,0.00
2022-11-20T05:02:26.520Z,0.00
2022-11-20T05:03:26.515Z,0.00
2022-11-20T05:04:26.516Z,0.00
2022-11-20T05:05:26.488Z,0.00
2022-11-20T05:06:26.479Z,0.00
2022-11-20T05:07:26.499Z,0.00
2022-11-20T05:08:26.454Z,0.00
2022-11-20T05:09:26.477Z,0.00
2022-11-20T05:10:26.476Z,0.00
2022-11-20T05:11:26.443Z,0.00
2022-11-20T05:12:26.478Z,0.00
2022-11-20T05:13:26.425Z,0.00
2022-11-20T05:14:26.392Z,0.00
2022-11-20T05:15:26.413Z,0.00
2022-11-20T05:16:26.384Z,0.00
2022-11-20T05:17:26.372Z,0.00
2022-11-20T05:18:26.363Z,0.00
2022-11-20T05:19:26.388Z,0.00
2022-11-20T05:20:26.400Z,0.00
2022-11-20T05:21:26.342Z,0.00
2022-11-20T05:22:26.312Z,0.00
2022-11-20T05:23:26.341Z,0.00
2022-11-20T05:24:26.295Z,0.00
2022-11-20T05:25:26.307Z,0.00
2022-11-20T05:26:26.329Z,0.00
2022-11-20T05:27:26.283Z,0.00
2022-11-20T05:28:26.269Z,0.00
2022-11-20T05:29:26.248Z,0.00
2022-11-20T05:30:26.243Z,0.00
2022-11-20T05:31:28.171Z,0.00
2022-11-20T05:32:26.229Z,0.00
2022-11-20T05:33:26.290Z,0.00
2022-11-20T05:34:26.213Z,0.00
2022-11-20T05:35:26.180Z,0.00
2022-11-20T05:36:26.467Z,0.00
2022-11-20T05:37:26.168Z,0.00
2022-11-20T05:38:26.187Z,0.00
2022-11-20T05:39:26.170Z,0.00
2022-11-20T05:40:26.139Z,0.00
2022-11-20T05:41:26.164Z,0.00
2022-11-20T05:42:26.130Z,0.00
2022-11-20T05:43:26.135Z,0.00
2022-11-20T05:44:26.125Z,0.00
2022-11-20T05:45:26.174Z,0.00
2022-11-20T05:46:28.801Z,0.00
2022-11-20T05:47:26.081Z,0.00
2022-11-20T05:48:26.067Z,0.00
2022-11-20T05:49:26.057Z,0.00
2022-11-20T05:50:26.057Z,0.00
2022-11-20T05:51:26.046Z,0.00
2022-11-20T05:52:26.043Z,0.00
2022-11-20T05:53:27.738Z,0.00
2022-11-20T05:54:26.014Z,0.00
2022-11-20T05:55:26.000Z,0.00
2022-11-20T05:56:25.998Z,0.00
2022-11-20T05:57:26.134Z,0.00
2022-11-20T05:58:25.984Z,0.00
2022-11-20T05:59:25.944Z,0.00
2022-11-20T06:00:25.957Z,0.00
2022-11-20T06:01:25.961Z,0.00
2022-11-20T06:02:25.946Z,0.00
2022-11-20T06:03:25.915Z,0.00
2022-11-20T06:04:25.908Z,0.00
2022-11-20T06:05:25.904Z,0.00
2022-11-20T06:06:25.894Z,0.00
2022-11-20T06:07:25.909Z,0.00
2022-11-20T06:08:25.877Z,0.00
2022-11-20T06:09:25.851Z,0.00
2022-11-20T06:10:25.860Z,0.00
2022-11-20T06:11:25.830Z,0.00
2022-11-20T06:12:25.849Z,0.00
2022-11-20T06:13:25.821Z,0.00
2022-11-20T06:14:25.818Z,0.00
2022-11-20T06:15:25.793Z,0.00
2022-11-20T06:16:25.793Z,0.00
2022-11-20T06:17:25.773Z,0.00
2022-11-20T06:18:25.789Z,0.00
2022-11-20T06:19:25.759Z,0.00
2022-11-20T06:20:25.752Z,0.00
2022-11-20T06:21:25.742Z,0.00
2022-11-20T06:22:25.746Z,0.00
2022-11-20T06:23:25.728Z,0.00
2022-11-20T06:24:25.682Z,1.00
2022-11-20T06:25:25.696Z,0.00
2022-11-20T06:26:25.696Z,0.00
2022-11-20T06:27:25.679Z,0.00
2022-11-20T06:28:25.681Z,0.00
2022-11-20T06:29:28.856Z,0.00
2022-11-20T06:30:25.667Z,1.00
2022-11-20T06:31:25.583Z,1.00
2022-11-20T06:32:25.620Z,3.00
2022-11-20T06:33:25.587Z,1.00
2022-11-20T06:34:25.568Z,3.00
2022-11-20T06:35:25.537Z,2.00
2022-11-20T06:36:25.588Z,2.00
2022-11-20T06:37:25.532Z,4.00
2022-11-20T06:38:25.544Z,9.00
2022-11-20T06:39:25.503Z,4.00
2022-11-20T06:40:25.505Z,7.00
2022-11-20T06:41:25.491Z,5.00
2022-11-20T06:42:25.525Z,9.00
2022-11-20T06:43:25.469Z,12.00
2022-11-20T06:44:25.469Z,15.00
2022-11-20T06:45:25.445Z,16.00
2022-11-20T06:46:25.448Z,21.00
2022-11-20T06:47:25.429Z,23.00
2022-11-20T06:48:25.434Z,23.00
2022-11-20T06:49:25.575Z,29.00
2022-11-20T06:50:25.415Z,35.00
2022-11-20T06:51:25.392Z,41.00
2022-11-20T06:52:25.424Z,51.00
2022-11-20T06:53:25.486Z,53.00
2022-11-20T06:54:25.384Z,54.00
2022-11-20T06:55:25.351Z,63.00
2022-11-20T06:56:25.338Z,72.00
2022-11-20T06:57:25.351Z,83.00
2022-11-20T06:58:25.336Z,93.00
2022-11-20T06:59:25.308Z,96.00
2022-11-20T07:00:25.323Z,99.00
2022-11-20T07:01:25.389Z,108.00
2022-11-20T07:02:25.310Z,117.00
2022-11-20T07:03:25.266Z,123.00
2022-11-20T07:04:25.267Z,131.00
2022-11-20T07:05:25.261Z,133.00
2022-11-20T07:06:25.238Z,140.00
2022-11-20T07:07:25.276Z,149.00
2022-11-20T07:08:25.257Z,154.00
2022-11-20T07:09:25.481Z,163.00
2022-11-20T07:10:25.231Z,174.00
2022-11-20T07:11:25.188Z,184.00
2022-11-20T07:12:25.197Z,189.00
2022-11-20T07:13:25.186Z,201.00
2022-11-20T07:14:25.198Z,214.00
2022-11-20T07:15:25.145Z,220.00
2022-11-20T07:16:25.161Z,230.00
2022-11-20T07:17:25.131Z,255.00
2022-11-20T07:18:25.155Z,252.00
2022-11-20T07:19:25.148Z,259.00
2022-11-20T07:20:25.114Z,271.00
2022-11-20T07:21:25.110Z,273.00
2022-11-20T07:22:25.099Z,290.00
2022-11-20T07:23:25.085Z,302.00
2022-11-20T07:24:25.088Z,309.00
2022-11-20T07:25:25.054Z,320.00
2022-11-20T07:26:25.052Z,349.00
2022-11-20T07:27:25.032Z,375.00
2022-11-20T07:28:25.063Z,405.00
2022-11-20T07:29:25.012Z,433.00
2022-11-20T07:30:25.018Z,409.00
2022-11-20T07:31:24.998Z,436.00
2022-11-20T07:32:25.027Z,434.00
2022-11-20T07:33:24.973Z,415.00
2022-11-20T07:34:24.996Z,422.00
2022-11-20T07:35:24.958Z,453.00
2022-11-20T07:36:24.944Z,505.00
2022-11-20T07:37:24.932Z,529.00
2022-11-20T07:38:24.947Z,561.00
2022-11-20T07:39:24.912Z,561.00
2022-11-20T07:40:24.903Z,550.00
2022-11-20T07:41:24.896Z,533.00
2022-11-20T07:42:24.993Z,545.00
2022-11-20T07:43:24.863Z,587.00
2022-11-20T07:44:24.876Z,644.00
2022-11-20T07:45:24.855Z,656.00
2022-11-20T07:46:24.850Z,655.00
2022-11-20T07:47:24.835Z,634.00
2022-11-20T07:48:24.842Z,666.00
2022-11-20T07:49:24.935Z,696.00
2022-11-20T07:50:24.821Z,649.00
2022-11-20T07:51:24.787Z,675.00
2022-11-20T07:52:24.791Z,731.00
2022-11-20T07:53:24.796Z,750.00
2022-11-20T07:54:24.786Z,729.00
2022-11-20T07:55:24.756Z,728.00
2022-11-20T07:56:24.745Z,726.00
2022-11-20T07:57:28.267Z,785.00
2022-11-20T07:58:24.743Z,785.00
2022-11-20T07:59:24.727Z,775.00
2022-11-20T08:00:24.713Z,780.00
2022-11-20T08:01:24.782Z,759.00
2022-11-20T08:02:24.695Z,847.00
2022-11-20T08:03:25.837Z,864.00
2022-11-20T08:04:24.703Z,960.00
2022-11-20T08:05:24.669Z,962.00
2022-11-20T08:06:24.676Z,873.00
2022-11-20T08:07:24.847Z,864.00
2022-11-20T08:08:24.646Z,890.00
2022-11-20T08:09:24.673Z,961.00
2022-11-20T08:10:24.996Z,928.00
2022-11-20T08:11:24.622Z,890.00
2022-11-20T08:12:24.645Z,934.00
2022-11-20T08:13:24.584Z,988.00
2022-11-20T08:14:24.596Z,965.00
2022-11-20T08:15:24.642Z,966.00
2022-11-20T08:16:24.568Z,953.00
2022-11-20T08:17:24.567Z,1155.00
2022-11-20T08:18:32.833Z,1202.00
2022-11-20T08:19:24.851Z,1003.00
2022-11-20T08:20:24.767Z,1285.00
2022-11-20T08:21:24.516Z,945.00
2022-11-20T08:22:24.501Z,875.00
2022-11-20T08:23:24.494Z,1079.00
2022-11-20T08:24:24.505Z,1104.00
2022-11-20T08:25:24.450Z,1087.00
2022-11-20T08:26:24.475Z,1127.00
2022-11-20T08:27:24.441Z,1137.00
2022-11-20T08:28:24.499Z,1041.00
2022-11-20T08:29:24.834Z,1074.00
2022-11-20T08:30:24.470Z,1278.00
2022-11-20T08:31:24.398Z,1410.00
2022-11-20T08:32:24.388Z,1170.00
2022-11-20T08:33:24.385Z,1420.00
2022-11-20T08:34:24.388Z,1200.00
2022-11-20T08:35:24.382Z,1383.00
2022-11-20T08:36:24.403Z,1254.00
2022-11-20T08:37:24.354Z,1299.00
2022-11-20T08:38:24.364Z,1270.00
2022-11-20T08:39:24.507Z,1230.00
2022-11-20T08:40:24.349Z,1233.00
2022-11-20T08:41:24.315Z,1143.00
2022-11-20T08:42:24.293Z,1371.00
2022-11-20T08:43:24.323Z,1418.00
2022-11-20T08:44:24.293Z,1469.00
2022-11-20T08:45:24.259Z,1385.00
2022-11-20T08:46:24.281Z,1307.00
2022-11-20T08:47:24.226Z,1424.00
2022-11-20T08:48:24.220Z,1342.00
2022-11-20T08:49:24.500Z,1838.00
2022-11-20T08:50:24.332Z,1533.00
2022-11-20T08:51:24.241Z,1524.00
2022-11-20T08:52:24.237Z,1230.00
2022-11-20T08:53:24.184Z,1523.00
2022-11-20T08:54:24.164Z,1651.00
2022-11-20T08:55:24.166Z,1852.00
2022-11-20T08:56:24.143Z,1997.00
2022-11-20T08:57:24.144Z,1998.00
2022-11-20T08:58:24.160Z,2102.00
2022-11-20T08:59:50.399Z,1981.00
2022-11-20T09:00:24.159Z,2451.00
2022-11-20T09:01:24.236Z,1740.00
2022-11-20T09:02:24.507Z,2182.00
2022-11-20T09:03:27.394Z,2594.00
2022-11-20T09:04:24.096Z,2176.00
2022-11-20T09:05:24.109Z,3097.00
2022-11-20T09:06:24.050Z,2252.00
2022-11-20T09:07:24.109Z,2523.00
2022-11-20T09:08:24.032Z,2538.00
2022-11-20T09:09:24.197Z,2789.00
2022-11-20T09:10:25.315Z,2336.00
2022-11-20T09:11:24.108Z,2998.00
2022-11-20T09:12:23.987Z,3121.00
2022-11-20T09:13:23.979Z,2161.00
2022-11-20T09:14:23.971Z,3176.00
2022-11-20T09:16:34.752Z,2816.00
2022-11-20T09:17:35.760Z,2630.00
2022-11-20T09:18:37.535Z,2633.00
2022-11-20T09:19:36.478Z,3837.00
2022-11-20T09:20:35.716Z,1957.00
2022-11-20T09:21:35.705Z,1672.00
2022-11-20T09:22:35.726Z,3332.00
2022-11-20T09:23:37.439Z,2753.00
2022-11-20T09:24:35.670Z,2141.00
2022-11-20T09:25:35.662Z,3917.00
2022-11-20T09:26:35.645Z,2975.00
2022-11-20T09:27:35.645Z,3020.00
2022-11-20T09:28:35.655Z,3169.00
2022-11-20T09:29:35.641Z,3300.00
2022-11-20T09:30:35.612Z,2721.00
2022-11-20T09:31:35.592Z,2721.00
2022-11-20T09:32:35.592Z,3340.00
2022-11-20T09:33:35.578Z,4244.00
2022-11-20T09:34:35.585Z,2507.00
2022-11-20T09:35:35.552Z,4037.00
2022-11-20T09:36:35.558Z,3355.00
2022-11-20T09:37:35.533Z,2207.00
2022-11-20T09:38:35.530Z,5115.00
2022-11-20T09:39:35.538Z,5148.00
2022-11-20T09:40:35.518Z,2567.00
2022-11-20T09:41:35.498Z,4078.00
2022-11-20T09:42:35.485Z,4674.00
2022-11-20T09:43:36.381Z,3847.00
2022-11-20T09:44:35.474Z,14380.00
2022-11-20T09:45:35.471Z,16136.00
2022-11-20T09:46:35.458Z,15693.00
2022-11-20T09:47:35.436Z,24613.00
2022-11-20T09:48:35.427Z,10043.00
2022-11-20T09:49:35.577Z,10315.00
2022-11-20T09:50:35.412Z,19208.00
2022-11-20T09:51:35.410Z,10597.00
2022-11-20T09:52:35.402Z,10704.00
2022-11-20T09:53:37.116Z,10876.00
2022-11-20T09:54:35.372Z,10215.00
2022-11-20T09:55:35.351Z,18306.00
2022-11-20T09:56:35.372Z,15528.00
2022-11-20T09:57:35.334Z,11562.00
2022-11-20T09:58:35.331Z,7361.00
2022-11-20T09:59:35.301Z,4857.00
2022-11-20T10:00:35.356Z,1034.00
2022-11-20T10:01:35.323Z,3990.00
2022-11-20T10:02:35.300Z,3415.00
2022-11-20T10:03:35.284Z,3277.00
2022-11-20T10:04:38.178Z,3408.00
2022-11-20T10:05:35.260Z,3937.00
2022-11-20T10:06:35.250Z,3005.00
2022-11-20T10:07:35.331Z,1829.00
2022-11-20T10:08:35.237Z,5621.00
2022-11-20T10:09:35.213Z,13260.00
2022-11-20T10:10:37.486Z,7560.00
2022-11-20T10:11:35.208Z,4893.00
2022-11-20T10:12:35.196Z,5330.00
2022-11-20T10:13:35.163Z,2777.00
2022-11-20T10:14:35.167Z,9587.00
2022-11-20T10:15:35.138Z,20560.00
2022-11-20T10:16:40.645Z,13041.00
2022-11-20T10:17:35.145Z,3747.00
2022-11-20T10:18:35.129Z,3021.00
2022-11-20T10:19:35.094Z,7084.00
2022-11-20T10:20:35.092Z,5691.00
2022-11-20T10:21:35.089Z,14645.00
2022-11-20T10:22:35.070Z,14398.00
2022-11-20T10:23:35.076Z,22244.00
2022-11-20T10:24:35.058Z,26634.00
2022-11-20T10:25:35.036Z,11598.00
2022-11-20T10:26:35.061Z,23321.00
2022-11-20T10:27:35.028Z,33267.00
2022-11-20T10:28:35.017Z,25743.00
2022-11-20T10:29:34.991Z,14963.00
2022-11-20T10:30:34.996Z,11531.00
2022-11-20T10:31:34.973Z,8743.00
2022-11-20T10:32:34.986Z,3694.00
2022-11-20T10:33:57.088Z,3646.00
2022-11-20T10:34:34.966Z,3710.00
2022-11-20T10:35:34.938Z,3690.00
2022-11-20T10:36:34.931Z,3090.00
2022-11-20T10:37:34.910Z,1923.00
2022-11-20T10:38:34.922Z,8857.00
2022-11-20T10:39:34.905Z,11409.00
2022-11-20T10:40:34.891Z,2647.00
2022-11-20T10:41:37.082Z,4421.00
2022-11-20T10:42:34.879Z,8056.00
2022-11-20T10:43:34.863Z,72400.00
2022-11-20T10:44:34.853Z,66339.00
2022-11-20T10:45:34.824Z,32417.00
2022-11-20T10:46:34.830Z,22273.00
2022-11-20T10:47:34.802Z,25241.00
2022-11-20T10:48:34.824Z,15011.00
2022-11-20T10:49:34.785Z,15328.00
2022-11-20T10:50:34.782Z,19685.00
2022-11-20T10:51:34.755Z,10030.00
2022-11-20T10:52:34.801Z,14593.00
2022-11-20T10:53:34.770Z,9714.00
2022-11-20T10:54:34.736Z,9935.00
2022-11-20T10:55:34.725Z,6715.00
2022-11-20T10:56:34.714Z,8255.00
2022-11-20T10:57:34.702Z,7162.00
2022-11-20T10:58:34.689Z,7969.00
2022-11-20T10:59:34.702Z,8294.00
2022-11-20T11:00:34.682Z,4987.00
2022-11-20T11:01:34.713Z,9616.00
2022-11-20T11:02:34.685Z,18288.00
2022-11-20T11:03:34.737Z,15438.00
2022-11-20T11:04:34.653Z,4185.00
2022-11-20T11:05:34.621Z,29815.00
2022-11-20T11:06:34.608Z,7488.00
2022-11-20T11:07:34.644Z,73573.00
2022-11-20T11:08:34.601Z,74450.00
2022-11-20T11:09:34.607Z,75226.00
2022-11-20T11:10:34.576Z,69833.00
2022-11-20T11:11:34.555Z,35230.00
2022-11-20T11:12:34.561Z,21168.00
2022-11-20T11:13:34.540Z,15182.00
2022-11-20T11:14:34.524Z,9253.00
2022-11-20T11:15:34.537Z,5138.00
2022-11-20T11:16:34.514Z,15719.00
2022-11-20T11:17:34.493Z,9555.00
2022-11-20T11:18:34.479Z,7236.00
2022-11-20T11:19:34.489Z,5548.00
2022-11-20T11:20:34.466Z,7369.00
2022-11-20T11:21:34.448Z,8807.00
2022-11-20T11:22:34.439Z,8305.00
2022-11-20T11:23:34.426Z,10127.00
2022-11-20T11:24:42.142Z,6712.00
2022-11-20T11:25:34.440Z,10995.00
2022-11-20T11:26:34.409Z,8710.00
2022-11-20T11:27:34.387Z,7895.00
2022-11-20T11:28:34.391Z,6285.00
2022-11-20T11:29:34.371Z,6352.00
2022-11-20T11:30:34.361Z,7358.00
2022-11-20T11:31:34.368Z,7211.00
2022-11-20T11:32:34.340Z,6884.00
2022-11-20T11:33:34.329Z,6843.00
2022-11-20T11:34:34.422Z,6242.00
2022-11-20T11:35:34.303Z,6037.00
2022-11-20T11:36:34.304Z,5926.00
2022-11-20T11:37:34.277Z,5897.00
2022-11-20T11:38:34.283Z,5875.00
2022-11-20T11:39:34.259Z,5788.00
2022-11-20T11:40:34.289Z,5745.00
2022-11-20T11:41:34.259Z,5809.00
2022-11-20T11:42:34.236Z,5767.00
2022-11-20T11:43:36.852Z,5823.00
2022-11-20T11:44:34.221Z,5683.00
2022-11-20T11:45:34.203Z,5489.00
2022-11-20T11:46:34.226Z,5418.00
2022-11-20T11:47:34.179Z,5302.00
2022-11-20T11:48:34.177Z,5179.00
2022-11-20T11:49:34.168Z,5224.00
2022-11-20T11:50:34.161Z,5178.00
2022-11-20T11:51:34.125Z,5320.00
2022-11-20T11:52:34.156Z,5414.00
2022-11-20T11:53:34.120Z,5607.00
2022-11-20T11:54:34.110Z,5718.00
2022-11-20T11:55:34.094Z,5937.00
2022-11-20T11:56:34.093Z,5924.00
2022-11-20T11:57:34.098Z,5987.00
2022-11-20T11:58:34.094Z,6377.00
2022-11-20T11:59:34.046Z,5671.00
2022-11-20T12:00:34.059Z,7501.00
2022-11-20T12:01:34.029Z,7244.00
2022-11-20T12:02:34.093Z,5950.00
2022-11-20T12:03:34.027Z,8541.00
2022-11-20T12:04:34.011Z,6261.00
2022-11-20T12:05:33.994Z,9707.00
2022-11-20T12:06:33.989Z,4707.00
2022-11-20T12:07:49.327Z,8647.00
2022-11-20T12:08:34.065Z,7388.00
2022-11-20T12:09:33.945Z,14542.00
2022-11-20T12:10:33.949Z,6476.00
2022-11-20T12:11:33.964Z,7818.00
2022-11-20T12:12:33.923Z,5349.00
2022-11-20T12:13:33.917Z,7053.00
2022-11-20T12:14:33.907Z,5074.00
2022-11-20T12:15:33.872Z,6058.00
2022-11-20T12:16:33.935Z,5514.00
2022-11-20T12:17:33.870Z,4955.00
2022-11-20T12:18:33.863Z,5544.00
2022-11-20T12:19:33.867Z,3974.00
2022-11-20T12:20:33.843Z,7605.00
2022-11-20T12:21:33.835Z,6157.00
2022-11-20T12:22:33.821Z,4396.00
2022-11-20T12:23:33.800Z,8003.00
2022-11-20T12:24:33.824Z,8641.00
2022-11-20T12:25:33.788Z,11856.00
2022-11-20T12:26:33.788Z,12961.00
2022-11-20T12:27:33.761Z,8023.00
2022-11-20T12:28:33.761Z,6794.00
2022-11-20T12:29:33.759Z,5928.00
2022-11-20T12:30:33.760Z,8129.00
2022-11-20T12:31:33.721Z,5538.00
2022-11-20T12:32:33.711Z,4924.00
2022-11-20T12:33:33.716Z,4784.00
2022-11-20T12:34:33.699Z,4608.00
2022-11-20T12:35:33.672Z,4489.00
2022-11-20T12:36:33.696Z,4412.00
2022-11-20T12:37:33.657Z,4148.00
2022-11-20T12:38:33.652Z,3837.00
2022-11-20T12:39:33.645Z,3630.00
2022-11-20T12:40:33.635Z,3270.00
2022-11-20T12:41:33.636Z,2991.00
2022-11-20T12:42:33.621Z,2689.00
2022-11-20T12:43:33.586Z,2343.00
2022-11-20T12:44:33.599Z,2035.00
2022-11-20T12:45:33.575Z,1765.00